sensor_id;sensor_type;location;lat;lon;timestamp;pressure;altitude;pressure_sealevel;temperature;humidity
18755;BME280;35061;47.664;9.166;2022-09-09T00:01:05;101342.77;;;15.09;83.09
18755;BME280;35061;47.664;9.166;2022-09-09T00:03:54;101345.65;;;15.09;83.48
18755;BME280;35061;47.664;9.166;2022-09-09T00:06:29;101345.32;;;15.01;85.64
18755;BME280;35061;47.664;9.166;2022-09-09T00:09:11;101347.94;;;14.99;84.58
18755;BME280;35061;47.664;9.166;2022-09-09T00:11:43;101352.65;;;14.96;85.06
18755;BME280;35061;47.664;9.166;2022-09-09T00:14:37;101355.03;;;14.98;84.10
18755;BME280;35061;47.664;9.166;2022-09-09T00:17:12;101355.79;;;14.98;84.31
18755;BME280;35061;47.664;9.166;2022-09-09T00:19:48;101352.13;;;14.98;84.01
18755;BME280;35061;47.664;9.166;2022-09-09T00:22:21;101340.29;;;14.96;84.11
18755;BME280;35061;47.664;9.166;2022-09-09T00:24:55;101343.72;;;14.94;83.94
18755;BME280;35061;47.664;9.166;2022-09-09T00:27:32;101348.69;;;14.93;84.35
18755;BME280;35061;47.664;9.166;2022-09-09T00:32:44;101348.36;;;14.86;84.39
18755;BME280;35061;47.664;9.166;2022-09-09T00:35:21;101350.16;;;14.83;84.44
18755;BME280;35061;47.664;9.166;2022-09-09T00:37:53;101348.82;;;14.78;84.56
18755;BME280;35061;47.664;9.166;2022-09-09T00:40:35;101346.95;;;14.75;86.01
18755;BME280;35061;47.664;9.166;2022-09-09T00:59:50;101347.12;;;14.66;87.20
18755;BME280;35061;47.664;9.166;2022-09-09T01:02:52;101346.83;;;14.64;87.57
18755;BME280;35061;47.664;9.166;2022-09-09T01:08:03;101344.44;;;14.62;87.97
18755;BME280;35061;47.664;9.166;2022-09-09T01:11:14;101334.23;;;14.61;87.77
18755;BME280;35061;47.664;9.166;2022-09-09T01:13:35;101338.42;;;14.60;88.07
18755;BME280;35061;47.664;9.166;2022-09-09T01:16:04;101328.19;;;14.59;87.97
18755;BME280;35061;47.664;9.166;2022-09-09T01:18:39;101333.68;;;14.57;88.14
18755;BME280;35061;47.664;9.166;2022-09-09T01:24:27;101332.08;;;14.56;88.63
18755;BME280;35061;47.664;9.166;2022-09-09T01:27:01;101331.30;;;14.56;88.19
18755;BME280;35061;47.664;9.166;2022-09-09T01:29:29;101326.03;;;14.54;88.53
18755;BME280;35061;47.664;9.166;2022-09-09T01:32:00;101317.36;;;14.54;88.45
18755;BME280;35061;47.664;9.166;2022-09-09T01:34:36;101317.92;;;14.52;88.56
18755;BME280;35061;47.664;9.166;2022-09-09T01:37:10;101307.69;;;14.51;88.93
18755;BME280;35061;47.664;9.166;2022-09-09T01:39:42;101307.39;;;14.49;89.14
18755;BME280;35061;47.664;9.166;2022-09-09T01:42:13;101309.77;;;14.51;89.21
18755;BME280;35061;47.664;9.166;2022-09-09T01:44:42;101318.64;;;14.47;89.71
18755;BME280;35061;47.664;9.166;2022-09-09T01:47:10;101327.01;;;14.45;90.25
18755;BME280;35061;47.664;9.166;2022-09-09T01:49:38;101320.47;;;14.45;90.08
18755;BME280;35061;47.664;9.166;2022-09-09T01:52:06;101314.71;;;14.45;nan
18755;BME280;35061;47.664;9.166;2022-09-09T01:54:35;101312.36;;;14.49;91.41
18755;BME280;35061;47.664;9.166;2022-09-09T02:00:11;101319.95;;;14.46;92.45
18755;BME280;35061;47.664;9.166;2022-09-09T02:07:50;101318.15;;;14.49;91.81
18755;BME280;35061;47.664;9.166;2022-09-09T02:10:23;101324.63;;;14.44;91.80
18755;BME280;35061;47.664;9.166;2022-09-09T02:13:04;101323.77;;;14.37;92.48
18755;BME280;35061;47.664;9.166;2022-09-09T02:18:22;101343.55;;;14.24;92.52
18755;BME280;35061;47.664;9.166;2022-09-09T02:20:53;101344.27;;;14.19;94.01
18755;BME280;35061;47.664;9.166;2022-09-09T02:23:21;101347.45;;;14.21;93.24
18755;BME280;35061;47.664;9.166;2022-09-09T02:25:50;101356.34;;;14.23;93.06
18755;BME280;35061;47.664;9.166;2022-09-09T02:28:21;101350.59;;;14.23;93.32
18755;BME280;35061;47.664;9.166;2022-09-09T02:30:53;101356.15;;;14.27;93.57
18755;BME280;35061;47.664;9.166;2022-09-09T02:33:25;101359.55;;;14.25;93.93
18755;BME280;35061;47.664;9.166;2022-09-09T02:35:55;101355.36;;;14.26;93.82
18755;BME280;35061;47.664;9.166;2022-09-09T02:38:32;101347.80;;;14.29;93.86
18755;BME280;35061;47.664;9.166;2022-09-09T02:41:02;101347.80;;;14.29;94.35
18755;BME280;35061;47.664;9.166;2022-09-09T02:43:32;101352.74;;;14.28;95.17
18755;BME280;35061;47.664;9.166;2022-09-09T02:46:15;101366.67;;;14.30;98.64
18755;BME280;35061;47.664;9.166;2022-09-09T02:54:30;101369.29;;;14.33;96.32
18755;BME280;35061;47.664;9.166;2022-09-09T02:57:11;101365.43;;;14.36;96.94
18755;BME280;35061;47.664;9.166;2022-09-09T02:59:40;101379.82;;;14.36;96.97
18755;BME280;35061;47.664;9.166;2022-09-09T03:02:08;101385.58;;;14.36;96.83
18755;BME280;35061;47.664;9.166;2022-09-09T03:04:38;101380.12;;;14.38;96.50
18755;BME280;35061;47.664;9.166;2022-09-09T03:07:06;101362.82;;;14.38;96.00
18755;BME280;35061;47.664;9.166;2022-09-09T03:09:34;101379.10;;;14.42;95.83
18755;BME280;35061;47.664;9.166;2022-09-09T03:12:02;101381.45;;;14.43;96.26
18755;BME280;35061;47.664;9.166;2022-09-09T03:14:31;101381.26;;;14.47;95.72
18755;BME280;35061;47.664;9.166;2022-09-09T03:16:59;101378.64;;;14.49;95.46
18755;BME280;35061;47.664;9.166;2022-09-09T03:19:28;101366.91;;;14.52;95.19
18755;BME280;35061;47.664;9.166;2022-09-09T03:21:57;101375.30;;;14.56;95.01
18755;BME280;35061;47.664;9.166;2022-09-09T03:24:25;101387.41;;;14.60;94.95
18755;BME280;35061;47.664;9.166;2022-09-09T03:26:53;101383.22;;;14.61;95.02
18755;BME280;35061;47.664;9.166;2022-09-09T03:29:23;101392.93;;;14.64;94.83
18755;BME280;35061;47.664;9.166;2022-09-09T03:31:51;101388.55;;;14.69;94.70
18755;BME280;35061;47.664;9.166;2022-09-09T03:34:19;101387.24;;;14.70;94.78
18755;BME280;35061;47.664;9.166;2022-09-09T03:36:47;101391.69;;;14.71;94.93
18755;BME280;35061;47.664;9.166;2022-09-09T03:39:16;101390.71;;;14.74;95.16
18755;BME280;35061;47.664;9.166;2022-09-09T03:41:43;101390.97;;;14.76;95.02
18755;BME280;35061;47.664;9.166;2022-09-09T03:44:15;101397.31;;;14.80;94.94
18755;BME280;35061;47.664;9.166;2022-09-09T03:46:42;101402.35;;;14.85;94.65
18755;BME280;35061;47.664;9.166;2022-09-09T03:49:10;101396.89;;;14.87;94.63
18755;BME280;35061;47.664;9.166;2022-09-09T03:51:38;101400.29;;;14.91;94.04
18755;BME280;35061;47.664;9.166;2022-09-09T03:54:06;101398.03;;;15.01;92.82
18755;BME280;35061;47.664;9.166;2022-09-09T03:56:36;101389.17;;;15.11;91.64
18755;BME280;35061;47.664;9.166;2022-09-09T03:59:04;101388.23;;;15.19;91.62
18755;BME280;35061;47.664;9.166;2022-09-09T04:01:32;101392.18;;;15.28;90.56
18755;BME280;35061;47.664;9.166;2022-09-09T04:03:59;101392.25;;;15.33;89.31
18755;BME280;35061;47.664;9.166;2022-09-09T04:06:28;101388.09;;;15.40;89.20
18755;BME280;35061;47.664;9.166;2022-09-09T04:08:57;101378.41;;;15.43;88.33
18755;BME280;35061;47.664;9.166;2022-09-09T04:11:25;101372.13;;;15.51;88.57
18755;BME280;35061;47.664;9.166;2022-09-09T04:13:52;101380.31;;;15.52;88.07
18755;BME280;35061;47.664;9.166;2022-09-09T04:16:20;101379.04;;;15.59;86.70
18755;BME280;35061;47.664;9.166;2022-09-09T04:18:48;101375.11;;;15.62;85.88
18755;BME280;35061;47.664;9.166;2022-09-09T04:21:16;101386.39;;;15.66;83.94
18755;BME280;35061;47.664;9.166;2022-09-09T04:23:44;101377.50;;;15.69;83.68
18755;BME280;35061;47.664;9.166;2022-09-09T04:26:12;101388.03;;;15.72;83.06
18755;BME280;35061;47.664;9.166;2022-09-09T04:28:39;101385.97;;;15.79;83.56
18755;BME280;35061;47.664;9.166;2022-09-09T04:31:11;101389.11;;;15.81;83.12
18755;BME280;35061;47.664;9.166;2022-09-09T04:33:42;101382.01;;;15.82;83.48
18755;BME280;35061;47.664;9.166;2022-09-09T04:36:10;101376.55;;;15.84;83.39
18755;BME280;35061;47.664;9.166;2022-09-09T04:38:37;101374.69;;;15.81;83.27
18755;BME280;35061;47.664;9.166;2022-09-09T04:41:05;101377.30;;;15.79;83.71
18755;BME280;35061;47.664;9.166;2022-09-09T04:43:34;101378.09;;;15.79;83.35
18755;BME280;35061;47.664;9.166;2022-09-09T04:46:02;101386.23;;;15.81;83.50
18755;BME280;35061;47.664;9.166;2022-09-09T04:48:30;101390.45;;;15.85;84.33
18755;BME280;35061;47.664;9.166;2022-09-09T04:51:01;101384.66;;;15.85;83.87
18755;BME280;35061;47.664;9.166;2022-09-09T04:53:29;101393.59;;;15.82;84.05
18755;BME280;35061;47.664;9.166;2022-09-09T04:56:12;101381.26;;;15.87;84.64
18755;BME280;35061;47.664;9.166;2022-09-09T04:58:40;101395.95;;;15.83;84.61
18755;BME280;35061;47.664;9.166;2022-09-09T05:01:15;101386.98;;;15.75;85.14
18755;BME280;35061;47.664;9.166;2022-09-09T05:03:45;101389.30;;;15.66;85.46
18755;BME280;35061;47.664;9.166;2022-09-09T05:06:16;101387.18;;;15.60;85.82
18755;BME280;35061;47.664;9.166;2022-09-09T05:08:44;101384.27;;;15.55;86.35
18755;BME280;35061;47.664;9.166;2022-09-09T05:11:21;101379.72;;;15.42;87.69
18755;BME280;35061;47.664;9.166;2022-09-09T05:13:51;101371.77;;;15.31;90.63
18755;BME280;35061;47.664;9.166;2022-09-09T05:16:20;101376.71;;;15.25;90.39
18755;BME280;35061;47.664;9.166;2022-09-09T05:18:48;101375.05;;;15.13;90.95
18755;BME280;35061;47.664;9.166;2022-09-09T05:21:19;101383.94;;;15.09;90.37
18755;BME280;35061;47.664;9.166;2022-09-09T05:23:48;101398.07;;;15.07;90.75
18755;BME280;35061;47.664;9.166;2022-09-09T05:26:19;101392.77;;;15.00;90.76
18755;BME280;35061;47.664;9.166;2022-09-09T05:28:47;101407.16;;;14.94;90.92
18755;BME280;35061;47.664;9.166;2022-09-09T05:31:16;101395.84;;;14.90;91.34
18755;BME280;35061;47.664;9.166;2022-09-09T05:33:45;101396.07;;;14.87;91.89
18755;BME280;35061;47.664;9.166;2022-09-09T05:36:16;101387.63;;;14.83;92.05
18755;BME280;35061;47.664;9.166;2022-09-09T05:38:44;101389.44;;;14.81;92.53
18755;BME280;35061;47.664;9.166;2022-09-09T05:41:14;101392.34;;;14.81;92.87
18755;BME280;35061;47.664;9.166;2022-09-09T05:43:44;101394.44;;;14.80;93.09
18755;BME280;35061;47.664;9.166;2022-09-09T05:46:15;101403.85;;;14.81;93.46
18755;BME280;35061;47.664;9.166;2022-09-09T05:48:44;101397.31;;;14.80;93.83
18755;BME280;35061;47.664;9.166;2022-09-09T05:51:19;101393.62;;;14.79;93.74
18755;BME280;35061;47.664;9.166;2022-09-09T05:53:48;101412.52;;;14.81;93.77
18755;BME280;35061;47.664;9.166;2022-09-09T05:56:21;101423.54;;;14.82;93.61
18755;BME280;35061;47.664;9.166;2022-09-09T05:58:49;101421.48;;;14.83;93.53
18755;BME280;35061;47.664;9.166;2022-09-09T06:01:19;101424.62;;;14.85;93.41
18755;BME280;35061;47.664;9.166;2022-09-09T06:03:49;101428.28;;;14.85;93.46
18755;BME280;35061;47.664;9.166;2022-09-09T06:06:22;101425.70;;;14.87;93.68
18755;BME280;35061;47.664;9.166;2022-09-09T06:08:53;101430.93;;;14.89;93.41
18755;BME280;35061;47.664;9.166;2022-09-09T06:11:23;101425.47;;;14.91;93.33
18755;BME280;35061;47.664;9.166;2022-09-09T06:13:52;101428.12;;;14.95;93.25
18755;BME280;35061;47.664;9.166;2022-09-09T06:16:24;101428.38;;;14.97;93.65
18755;BME280;35061;47.664;9.166;2022-09-09T06:18:53;101425.57;;;15.02;93.20
18755;BME280;35061;47.664;9.166;2022-09-09T06:21:24;101425.90;;;15.10;93.34
18755;BME280;35061;47.664;9.166;2022-09-09T06:23:52;101439.79;;;15.12;93.65
18755;BME280;35061;47.664;9.166;2022-09-09T06:26:31;101431.95;;;15.12;93.38
18755;BME280;35061;47.664;9.166;2022-09-09T06:28:59;101436.42;;;15.13;94.05
18755;BME280;35061;47.664;9.166;2022-09-09T06:31:28;101440.38;;;15.16;93.41
18755;BME280;35061;47.664;9.166;2022-09-09T06:34:02;101439.63;;;15.21;93.52
18755;BME280;35061;47.664;9.166;2022-09-09T06:36:33;101439.17;;;15.28;93.64
18755;BME280;35061;47.664;9.166;2022-09-09T06:39:02;101430.54;;;15.34;92.90
18755;BME280;35061;47.664;9.166;2022-09-09T06:41:31;101432.66;;;15.39;92.86
18755;BME280;35061;47.664;9.166;2022-09-09T06:44:00;101423.28;;;15.44;92.65
18755;BME280;35061;47.664;9.166;2022-09-09T06:46:30;101435.64;;;15.51;92.47
18755;BME280;35061;47.664;9.166;2022-09-09T06:48:59;101430.44;;;15.55;92.11
18755;BME280;35061;47.664;9.166;2022-09-09T06:51:33;101435.45;;;15.60;91.92
18755;BME280;35061;47.664;9.166;2022-09-09T06:54:02;101432.60;;;15.66;91.75
18755;BME280;35061;47.664;9.166;2022-09-09T06:56:38;101433.94;;;15.70;91.40
18755;BME280;35061;47.664;9.166;2022-09-09T06:59:08;101443.16;;;15.74;90.90
18755;BME280;35061;47.664;9.166;2022-09-09T07:01:41;101437.14;;;15.78;90.87
18755;BME280;35061;47.664;9.166;2022-09-09T07:04:11;101425.86;;;15.80;91.02
18755;BME280;35061;47.664;9.166;2022-09-09T07:06:42;101436.66;;;15.85;90.63
18755;BME280;35061;47.664;9.166;2022-09-09T07:09:15;101434.56;;;15.86;90.74
18755;BME280;35061;47.664;9.166;2022-09-09T07:11:47;101430.37;;;15.87;89.81
18755;BME280;35061;47.664;9.166;2022-09-09T07:14:15;101426.16;;;15.88;89.72
18755;BME280;35061;47.664;9.166;2022-09-09T07:16:43;101420.70;;;15.90;89.64
18755;BME280;35061;47.664;9.166;2022-09-09T07:19:12;101433.05;;;15.90;89.22
18755;BME280;35061;47.664;9.166;2022-09-09T07:21:42;101434.63;;;15.92;89.31
18755;BME280;35061;47.664;9.166;2022-09-09T07:24:10;101429.13;;;15.94;89.11
18755;BME280;35061;47.664;9.166;2022-09-09T07:26:39;101424.66;;;15.93;88.70
18755;BME280;35061;47.664;9.166;2022-09-09T07:29:08;101431.23;;;15.93;88.89
18755;BME280;35061;47.664;9.166;2022-09-09T07:31:38;101422.82;;;15.95;88.73
18755;BME280;35061;47.664;9.166;2022-09-09T07:34:07;101424.16;;;16.00;88.78
18755;BME280;35061;47.664;9.166;2022-09-09T07:36:37;101425.99;;;15.97;88.83
18755;BME280;35061;47.664;9.166;2022-09-09T07:39:08;101434.92;;;15.99;88.66
18755;BME280;35061;47.664;9.166;2022-09-09T07:41:45;101418.41;;;16.00;88.55
18755;BME280;35061;47.664;9.166;2022-09-09T07:44:18;101426.78;;;16.03;88.50
18755;BME280;35061;47.664;9.166;2022-09-09T07:46:47;101427.63;;;16.10;88.30
18755;BME280;35061;47.664;9.166;2022-09-09T07:49:15;101425.80;;;16.12;88.28
18755;BME280;35061;47.664;9.166;2022-09-09T07:51:49;101434.98;;;16.16;88.19
18755;BME280;35061;47.664;9.166;2022-09-09T07:54:18;101423.70;;;16.18;88.07
18755;BME280;35061;47.664;9.166;2022-09-09T07:56:51;101436.59;;;16.23;87.93
18755;BME280;35061;47.664;9.166;2022-09-09T07:59:20;101426.91;;;16.26;87.84
18755;BME280;35061;47.664;9.166;2022-09-09T08:01:51;101434.04;;;16.31;87.83
18755;BME280;35061;47.664;9.166;2022-09-09T08:04:24;101430.60;;;16.38;88.02
18755;BME280;35061;47.664;9.166;2022-09-09T08:06:56;101429.33;;;16.45;87.94
18755;BME280;35061;47.664;9.166;2022-09-09T08:09:25;101436.42;;;16.50;87.84
18755;BME280;35061;47.664;9.166;2022-09-09T08:11:55;101429.07;;;16.54;87.54
18755;BME280;35061;47.664;9.166;2022-09-09T08:14:24;101434.10;;;16.59;87.53
18755;BME280;35061;47.664;9.166;2022-09-09T08:16:52;101449.90;;;16.70;87.36
18755;BME280;35061;47.664;9.166;2022-09-09T08:19:21;101452.55;;;16.79;87.13
18755;BME280;35061;47.664;9.166;2022-09-09T08:21:50;101454.90;;;16.86;87.14
18755;BME280;35061;47.664;9.166;2022-09-09T08:24:18;101456.24;;;16.97;86.94
18755;BME280;35061;47.664;9.166;2022-09-09T08:26:48;101458.66;;;17.04;86.35
18755;BME280;35061;47.664;9.166;2022-09-09T08:29:17;101460.49;;;17.13;86.29
18755;BME280;35061;47.664;9.166;2022-09-09T08:31:50;101466.57;;;17.26;86.16
18755;BME280;35061;47.664;9.166;2022-09-09T08:34:18;101459.48;;;17.33;86.20
18755;BME280;35061;47.664;9.166;2022-09-09T08:36:49;101455.49;;;17.48;86.39
18755;BME280;35061;47.664;9.166;2022-09-09T08:39:18;101454.97;;;17.61;86.25
18755;BME280;35061;47.664;9.166;2022-09-09T08:50:08;101445.58;;;18.31;84.97
18755;BME280;35061;47.664;9.166;2022-09-09T08:55:35;101448.55;;;18.61;80.48
18755;BME280;35061;47.664;9.166;2022-09-09T08:58:27;101449.08;;;18.65;79.08
18755;BME280;35061;47.664;9.166;2022-09-09T09:03:57;101446.34;;;18.85;76.64
18755;BME280;35061;47.664;9.166;2022-09-09T09:06:56;101446.23;;;18.96;77.74
18755;BME280;35061;47.664;9.166;2022-09-09T09:12:01;101443.62;;;18.92;76.63
18755;BME280;35061;47.664;9.166;2022-09-09T09:14:31;101436.00;;;18.89;76.72
18755;BME280;35061;47.664;9.166;2022-09-09T09:17:04;101440.97;;;18.94;76.99
18755;BME280;35061;47.664;9.166;2022-09-09T09:19:34;101436.75;;;18.95;76.21
18755;BME280;35061;47.664;9.166;2022-09-09T09:24:50;101436.75;;;19.01;75.70
18755;BME280;35061;47.664;9.166;2022-09-09T09:29:58;101442.80;;;19.03;73.58
18755;BME280;35061;47.664;9.166;2022-09-09T09:33:36;101443.84;;;19.00;74.33
18755;BME280;35061;47.664;9.166;2022-09-09T09:35:54;101433.58;;;18.93;72.88
18755;BME280;35061;47.664;9.166;2022-09-09T09:38:24;101437.11;;;18.86;72.65
18755;BME280;35061;47.664;9.166;2022-09-09T09:41:12;101449.27;;;18.79;72.27
18755;BME280;35061;47.664;9.166;2022-09-09T09:43:40;101442.96;;;18.75;71.87
18755;BME280;35061;47.664;9.166;2022-09-09T09:46:21;101446.66;;;18.75;72.77
18755;BME280;35061;47.664;9.166;2022-09-09T09:49:05;101443.45;;;18.79;73.64
18755;BME280;35061;47.664;9.166;2022-09-09T09:51:36;101451.92;;;18.77;72.61
18755;BME280;35061;47.664;9.166;2022-09-09T09:54:14;101449.02;;;18.77;73.44
18755;BME280;35061;47.664;9.166;2022-09-09T09:56:43;101452.19;;;18.79;72.84
18755;BME280;35061;47.664;9.166;2022-09-09T10:02:17;101439.27;;;18.74;70.77
18755;BME280;35061;47.664;9.166;2022-09-09T10:04:45;101433.22;;;18.72;71.31
18755;BME280;35061;47.664;9.166;2022-09-09T10:07:21;101440.61;;;18.73;71.82
18755;BME280;35061;47.664;9.166;2022-09-09T10:09:53;101435.84;;;18.76;70.34
18755;BME280;35061;47.664;9.166;2022-09-09T10:12:34;101436.36;;;18.74;69.60
18755;BME280;35061;47.664;9.166;2022-09-09T10:18:08;101422.10;;;18.76;68.66
18755;BME280;35061;47.664;9.166;2022-09-09T10:29:26;101427.01;;;18.93;68.51
18755;BME280;35061;47.664;9.166;2022-09-09T10:35:27;101429.82;;;19.10;69.29
18755;BME280;35061;47.664;9.166;2022-09-09T10:57:21;101421.94;;;19.35;62.86
18755;BME280;35061;47.664;9.166;2022-09-09T10:59:53;101422.95;;;19.38;62.86
18755;BME280;35061;47.664;9.166;2022-09-09T11:02:29;101431.16;;;19.39;60.94
18755;BME280;35061;47.664;9.166;2022-09-09T11:10:46;101432.99;;;19.37;62.85
18755;BME280;35061;47.664;9.166;2022-09-09T11:13:24;101432.77;;;19.35;62.48
18755;BME280;35061;47.664;9.166;2022-09-09T11:16:02;101432.86;;;19.23;61.34
18755;BME280;35061;47.664;9.166;2022-09-09T11:18:38;101434.23;;;19.17;62.23
18755;BME280;35061;47.664;9.166;2022-09-09T11:21:21;101435.58;;;19.16;62.25
18755;BME280;35061;47.664;9.166;2022-09-09T11:23:54;101443.48;;;19.15;61.66
18755;BME280;35061;47.664;9.166;2022-09-09T11:26:38;101437.47;;;19.07;61.42
18755;BME280;35061;47.664;9.166;2022-09-09T11:29:24;101445.16;;;18.99;60.91
18755;BME280;35061;47.664;9.166;2022-09-09T11:34:44;101442.57;;;19.01;62.03
18755;BME280;35061;47.664;9.166;2022-09-09T11:40:21;101428.38;;;19.22;60.78
18755;BME280;35061;47.664;9.166;2022-09-09T11:43:04;101425.14;;;19.32;60.71
18755;BME280;35061;47.664;9.166;2022-09-09T11:45:34;101412.95;;;19.39;58.69
18755;BME280;35061;47.664;9.166;2022-09-09T11:48:04;101417.33;;;19.51;60.32
18755;BME280;35061;47.664;9.166;2022-09-09T11:50:37;101405.66;;;19.57;57.83
18755;BME280;35061;47.664;9.166;2022-09-09T11:53:06;101414.58;;;19.59;57.91
18755;BME280;35061;47.664;9.166;2022-09-09T11:55:43;101406.41;;;19.58;57.47
18755;BME280;35061;47.664;9.166;2022-09-09T12:00:42;101412.88;;;19.45;56.26
18755;BME280;35061;47.664;9.166;2022-09-09T12:08:43;101407.23;;;19.58;57.78
18755;BME280;35061;47.664;9.166;2022-09-09T12:11:11;101401.86;;;19.62;57.25
18755;BME280;35061;47.664;9.166;2022-09-09T12:13:39;101410.00;;;19.70;58.60
18755;BME280;35061;47.664;9.166;2022-09-09T12:16:30;101409.87;;;19.81;59.46
18755;BME280;35061;47.664;9.166;2022-09-09T12:19:05;101398.66;;;19.91;58.62
18755;BME280;35061;47.664;9.166;2022-09-09T12:24:33;101393.52;;;20.22;60.04
18755;BME280;35061;47.664;9.166;2022-09-09T12:29:57;101387.34;;;20.50;60.21
18755;BME280;35061;47.664;9.166;2022-09-09T12:32:28;101377.50;;;20.54;53.94
18755;BME280;35061;47.664;9.166;2022-09-09T12:39:59;101373.87;;;20.86;57.14
18755;BME280;35061;47.664;9.166;2022-09-09T12:42:27;101377.43;;;20.92;56.52
18755;BME280;35061;47.664;9.166;2022-09-09T12:45:14;101372.10;;;20.96;56.52
18755;BME280;35061;47.664;9.166;2022-09-09T12:47:45;101374.13;;;21.01;54.90
18755;BME280;35061;47.664;9.166;2022-09-09T12:50:20;101378.74;;;21.10;56.48
18755;BME280;35061;47.664;9.166;2022-09-09T12:52:58;101368.02;;;21.18;56.33
18755;BME280;35061;47.664;9.166;2022-09-09T12:55:36;101360.76;;;21.25;55.95
18755;BME280;35061;47.664;9.166;2022-09-09T12:58:05;101367.27;;;21.31;56.17
18755;BME280;35061;47.664;9.166;2022-09-09T13:00:34;101360.30;;;21.34;55.49
18755;BME280;35061;47.664;9.166;2022-09-09T13:03:16;101358.73;;;21.33;56.26
18755;BME280;35061;47.664;9.166;2022-09-09T13:05:44;101347.88;;;21.34;56.53
18755;BME280;35061;47.664;9.166;2022-09-09T13:08:15;101355.59;;;21.31;55.54
18755;BME280;35061;47.664;9.166;2022-09-09T13:10:51;101345.84;;;21.29;55.21
18755;BME280;35061;47.664;9.166;2022-09-09T13:16:01;101342.05;;;21.21;54.59
18755;BME280;35061;47.664;9.166;2022-09-09T13:18:34;101325.11;;;21.19;55.29
18755;BME280;35061;47.664;9.166;2022-09-09T13:21:03;101321.42;;;21.18;55.99
18755;BME280;35061;47.664;9.166;2022-09-09T13:23:33;101318.37;;;21.11;54.49
18755;BME280;35061;47.664;9.166;2022-09-09T13:26:25;101312.46;;;21.03;54.47
18755;BME280;35061;47.664;9.166;2022-09-09T13:28:53;101303.17;;;21.04;53.46
18755;BME280;35061;47.664;9.166;2022-09-09T13:31:29;101305.49;;;21.06;53.16
18755;BME280;35061;47.664;9.166;2022-09-09T13:33:57;101307.65;;;21.05;52.47
18755;BME280;35061;47.664;9.166;2022-09-09T13:36:33;101305.49;;;21.06;52.67
18755;BME280;35061;47.664;9.166;2022-09-09T13:39:03;101297.35;;;21.04;53.05
18755;BME280;35061;47.664;9.166;2022-09-09T13:41:43;101302.35;;;21.04;53.24
18755;BME280;35061;47.664;9.166;2022-09-09T13:44:19;101297.91;;;21.03;52.85
18755;BME280;35061;47.664;9.166;2022-09-09T13:49:43;101295.78;;;21.03;53.71
18755;BME280;35061;47.664;9.166;2022-09-09T13:52:15;101295.68;;;21.09;54.39
18755;BME280;35061;47.664;9.166;2022-09-09T13:54:50;101292.97;;;21.11;53.79
18755;BME280;35061;47.664;9.166;2022-09-09T13:57:21;101295.09;;;21.11;53.81
18755;BME280;35061;47.664;9.166;2022-09-09T13:59:50;101292.09;;;21.16;54.01
18755;BME280;35061;47.664;9.166;2022-09-09T14:02:33;101287.51;;;21.21;54.43
18755;BME280;35061;47.664;9.166;2022-09-09T14:05:01;101278.22;;;21.23;53.18
18755;BME280;35061;47.664;9.166;2022-09-09T14:07:29;101278.32;;;21.30;53.70
18755;BME280;35061;47.664;9.166;2022-09-09T14:09:56;101273.71;;;21.35;53.97
18755;BME280;35061;47.664;9.166;2022-09-09T14:12:24;101282.02;;;21.44;54.48
18755;BME280;35061;47.664;9.166;2022-09-09T14:14:52;101273.38;;;21.52;55.21
18755;BME280;35061;47.664;9.166;2022-09-09T14:17:19;101266.55;;;21.63;55.49
18755;BME280;35061;47.664;9.166;2022-09-09T14:19:47;101266.12;;;21.72;55.57
18755;BME280;35061;47.664;9.166;2022-09-09T14:22:15;101276.29;;;21.79;55.75
18755;BME280;35061;47.664;9.166;2022-09-09T14:25:03;101279.10;;;21.85;55.96
18755;BME280;35061;47.664;9.166;2022-09-09T14:27:31;101282.21;;;21.87;55.99
18755;BME280;35061;47.664;9.166;2022-09-09T14:30:00;101279.53;;;21.89;56.26
18755;BME280;35061;47.664;9.166;2022-09-09T14:32:28;101259.91;;;21.89;56.19
18755;BME280;35061;47.664;9.166;2022-09-09T14:34:56;101277.60;;;21.92;56.38
18755;BME280;35061;47.664;9.166;2022-09-09T14:37:24;101270.57;;;21.87;56.61
18755;BME280;35061;47.664;9.166;2022-09-09T14:39:51;101270.90;;;21.83;56.24
18755;BME280;35061;47.664;9.166;2022-09-09T14:42:19;101261.94;;;21.81;56.10
18755;BME280;35061;47.664;9.166;2022-09-09T14:44:47;101263.41;;;21.74;56.15
18755;BME280;35061;47.664;9.166;2022-09-09T14:47:15;101260.04;;;21.70;55.90
18755;BME280;35061;47.664;9.166;2022-09-09T14:49:43;101264.62;;;21.66;55.94
18755;BME280;35061;47.664;9.166;2022-09-09T14:52:12;101269.46;;;21.63;56.17
18755;BME280;35061;47.664;9.166;2022-09-09T14:54:40;101265.30;;;21.58;56.26
18755;BME280;35061;47.664;9.166;2022-09-09T14:57:08;101273.94;;;21.51;55.93
18755;BME280;35061;47.664;9.166;2022-09-09T14:59:35;101280.12;;;21.47;56.07
18755;BME280;35061;47.664;9.166;2022-09-09T15:02:03;101282.57;;;21.43;56.30
18755;BME280;35061;47.664;9.166;2022-09-09T15:04:31;101288.72;;;21.39;56.60
18755;BME280;35061;47.664;9.166;2022-09-09T15:06:59;101283.59;;;21.32;56.78
18755;BME280;35061;47.664;9.166;2022-09-09T15:09:27;101287.84;;;21.31;57.10
18755;BME280;35061;47.664;9.166;2022-09-09T15:11:55;101279.10;;;21.31;57.93
18755;BME280;35061;47.664;9.166;2022-09-09T15:14:22;101280.80;;;21.26;58.81
18755;BME280;35061;47.664;9.166;2022-09-09T15:16:51;101279.23;;;21.25;59.27
18755;BME280;35061;47.664;9.166;2022-09-09T15:19:19;101271.48;;;21.28;59.57
18755;BME280;35061;47.664;9.166;2022-09-09T15:21:47;101290.78;;;21.31;60.08
18755;BME280;35061;47.664;9.166;2022-09-09T15:24:15;101292.55;;;21.34;60.34
18755;BME280;35061;47.664;9.166;2022-09-09T15:26:43;101282.67;;;21.37;60.70
18755;BME280;35061;47.664;9.166;2022-09-09T15:29:11;101288.06;;;21.33;60.90
18755;BME280;35061;47.664;9.166;2022-09-09T15:31:39;101286.16;;;21.36;60.06